• Join FlightAware (Why Join?)
  • Login
  • US Flag 
06:13PM EDT


 

Airport Tracker/Info


-or-


 

Live Flight TrackerFlight Track Log ✈ 9V-SKA ✈ 11-Apr-2013 ✈ WSSS / SIN - RJAA / NRT

Flight Track Log - Related Links

Times and Time Zones

All times are in EDT time to prevent confusion due to time zone crossing. See the 9V-SKA flight status page for this flight to view local times or setup timezone preferences in your user account.

Time Position Orientation Groundspeed Altitude Reporting Facility
EDT Latitude Longitude Course Direction KTS MPH feet Rate Location/Type
09:52PM 1.3390 103.9890 202° Southwest 109 125 200  Level FlightAware
09:53PM 1.3580 103.9970 23° Northeast 156 180 400 900 Climbing FlightAware
09:53PM 1.3760 104.0090 34° Northeast 150 173 1,100 1,320 Climbing FlightAware
09:53PM 1.3810 104.0130 39° Northeast 152 175 1,300 1,020 Climbing FlightAware
09:54PM 1.3970 104.0280 43° Northeast 159 183 1,800 960 Climbing FlightAware
09:54PM 1.4150 104.0440 42° Northeast 194 223 2,300 840 Climbing FlightAware
09:55PM 1.4330 104.0600 42° Northeast 228 262 2,600 1,200 Climbing FlightAware
09:55PM 1.4440 104.0710 45° Northeast 238 274 3,100 2,160 Climbing FlightAware
09:55PM 1.4510 104.0880 68° East 244 281 3,700 1,800 Climbing FlightAware
09:56PM 1.4420 104.1330 101° East 280 322 4,800 1,920 Climbing FlightAware
09:56PM 1.4260 104.1710 113° Southeast 286 329 6,000 2,460 Climbing FlightAware
09:57PM 1.4130 104.2020 113° Southeast 291 335 7,100 2,400 Climbing FlightAware
09:57PM 1.3970 104.2380 114° Southeast 296 341 8,200 2,400 Climbing FlightAware
09:58PM 1.3870 104.2630 112° Southeast 297 342 9,100 2,040 Climbing FlightAware
09:58PM 1.3620 104.3260 112° Southeast 319 367 10,600 1,380 Climbing FlightAware
09:59PM 1.3360 104.3890 112° Southeast 360 414 11,200 840 Climbing FlightAware
10:00PM 1.3310 104.4660 94° East 397 457 11,800 1,260 Climbing FlightAware
10:01PM 1.3330 104.5400 88° East 407 468 13,000 1,740 Climbing FlightAware
10:01PM 1.3350 104.6250 89° East 418 481 14,300 1,800 Climbing FlightAware
10:02PM 1.3370 104.7020 89° East 422 486 15,600 1,380 Climbing FlightAware
10:03PM 1.3400 104.8080 88° East 426 490 16,500 1,020 Climbing FlightAware
10:04PM 1.3430 104.8910 88° East 428 493 17,300 540 Climbing FlightAware
10:04PM 1.3450 104.9580 88° East 428 493 17,300  Level FlightAware
10:05PM 1.3470 105.0260 88° East 428 493 17,300  Level FlightAware
10:06PM 1.3500 105.0930 87° East 428 493 17,300 3,660 Level FlightAware
10:06PM 1.3650 105.2160 83° East 445 512 22,200 4,020 Climbing FlightAware
10:07PM 1.3930 105.3080 73° East 451 519 23,000 660 Climbing FlightAware
10:08PM 1.4300 105.4210 72° East 455 524 23,400 240 Climbing FlightAware
10:09PM 1.4520 105.4890 72° East 455 524 23,400 1,200 Level FlightAware
10:10PM 1.4900 105.6400 76° East 466 536 25,500 1,620 Climbing FlightAware
10:11PM 1.5370 105.7540 68° East 478 550 26,700 960 Climbing FlightAware
10:11PM 1.6050 105.8150 42° Northeast 490 564 27,100 960 Climbing FlightAware
10:12PM 1.6790 105.8610 32° Northeast 489 563 28,000 600 Climbing FlightAware
10:13PM 1.7590 105.9110 32° Northeast 489 563 28,000  Level FlightAware
10:13PM 1.8240 105.9510 32° Northeast 489 563 28,000 1,080 Level FlightAware
10:14PM 1.9440 106.0250 32° Northeast 502 578 29,700 1,860 Climbing FlightAware
10:15PM 2.0490 106.0910 32° Northeast 503 579 31,100 1,260 Climbing FlightAware
10:16PM 2.1290 106.1400 31° Northeast 506 582 31,600 1,020 Climbing FlightAware
10:17PM 2.2150 106.1970 34° Northeast 502 578 32,600 960 Climbing FlightAware
10:17PM 2.2710 106.2680 52° Northeast 497 572 33,000 420 Climbing FlightAware
10:18PM 2.3250 106.3430 54° Northeast 500 575 33,200 900 Climbing FlightAware
10:19PM 2.3880 106.4290 54° Northeast 496 571 34,300 1,080 Climbing FlightAware
10:19PM 2.4440 106.5030 53° Northeast 498 573 34,800 660 Climbing FlightAware
10:20PM 2.5100 106.5890 52° Northeast 497 572 35,300 1,560 Climbing FlightAware
10:21PM 2.6000 106.6690 42° Northeast 481 554 37,400 1,740 Climbing FlightAware
10:22PM 2.6580 106.7130 37° Northeast 481 554 37,800 600 Climbing FlightAware
10:22PM 2.7480 106.7810 37° Northeast 481 554 38,300 720 Climbing FlightAware
10:23PM 2.7800 106.8060 38° Northeast 478 550 38,700 480 Climbing FlightAware
10:24PM 2.8950 106.8900 36° Northeast 475 547 39,000 120 Climbing FlightAware
10:24PM 2.9570 106.9320 34° Northeast 475 547 39,000  Level FlightAware
10:25PM 3.0850 106.9060 349° North 487 560 39,000  Level FlightAware
10:26PM 3.1730 106.9100 North 487 560 39,000  Level FlightAware
10:27PM 3.2490 106.9150 North 487 560 39,000  Level FlightAware
10:27PM 3.3260 106.9190 North 487 560 39,000  Level FlightAware
10:28PM 3.4210 106.9240 North 487 560 39,000  Level FlightAware
10:29PM 3.4980 106.9280 North 487 560 39,000  Level FlightAware
10:29PM 3.5740 106.9320 North 487 560 39,000  Level FlightAware
10:30PM 3.6510 106.9360 North 487 560 39,000  Level FlightAware
10:31PM 3.7270 106.9400 North 487 560 39,000  Level FlightAware
10:31PM 3.8040 106.9440 North 487 560 39,000  Level FlightAware
10:32PM 3.8990 106.9490 North 487 560 39,000  Level FlightAware
10:33PM 3.9760 106.9530 North 487 560 39,000  Level FlightAware
10:34PM 4.0520 106.9570 North 487 560 39,000  Level FlightAware
10:34PM 4.1290 106.9610 North 487 560 39,000  Level FlightAware
10:35PM 4.2250 106.9660 North 487 560 39,000  Level FlightAware
10:38PM 4.4839 107.1838 40° Northeast  Level Estimated
10:39PM 4.5903 107.2733 40° Northeast  Level Estimated
10:40PM 4.6967 107.3629 40° Northeast  Level Estimated
10:41PM 4.8030 107.4525 40° Northeast  Level Estimated
10:42PM 4.9093 107.5421 40° Northeast  Level Estimated
10:43PM 5.0157 107.6318 40° Northeast  Level Estimated
10:44PM 5.1220 107.7215 40° Northeast  Level Estimated
10:45PM 5.2283 107.8112 40° Northeast  Level Estimated
10:46PM 5.3346 107.9009 40° Northeast  Level Estimated
10:47PM 5.4409 107.9907 40° Northeast  Level Estimated
10:48PM 5.5472 108.0805 40° Northeast  Level Estimated
10:49PM 5.6534 108.1704 40° Northeast  Level Estimated
10:50PM 5.7596 108.2602 40° Northeast  Level Estimated
10:51PM 5.8659 108.3502 40° Northeast  Level Estimated
10:52PM 5.9721 108.4401 40° Northeast  Level Estimated
10:53PM 6.0783 108.5301 40° Northeast  Level Estimated
10:54PM 6.1845 108.6201 40° Northeast  Level Estimated
10:55PM 6.2906 108.7101 40° Northeast  Level Estimated
10:56PM 6.3968 108.8002 40° Northeast  Level Estimated
10:57PM 6.5029 108.8903 40° Northeast  Level Estimated
10:58PM 6.6090 108.9805 40° Northeast  Level Estimated
10:59PM 6.7151 109.0707 40° Northeast  Level Estimated
11:00PM 6.8212 109.1609 40° Northeast  Level Estimated
11:01PM 6.9273 109.2512 40° Northeast  Level Estimated
11:02PM 7.0333 109.3415 40° Northeast  Level Estimated
11:03PM 7.1394 109.4319 40° Northeast  Level Estimated
11:04PM 7.2454 109.5223 40° Northeast  Level Estimated
11:05PM 7.3514 109.6127 40° Northeast  Level Estimated
11:06PM 7.4574 109.7032 40° Northeast  Level Estimated
11:07PM 7.5634 109.7938 40° Northeast  Level Estimated
11:08PM 7.6693 109.8843 40° Northeast  Level Estimated
11:09PM 7.7752 109.9750 40° Northeast  Level Estimated
11:10PM 7.8811 110.0656 40° Northeast  Level Estimated
11:11PM 7.9870 110.1563 40° Northeast  Level Estimated
11:12PM 8.0929 110.2471 40° Northeast  Level Estimated
11:13PM 8.1987 110.3379 40° Northeast  Level Estimated
11:14PM 8.3046 110.4288 40° Northeast  Level Estimated
11:15PM 8.4104 110.5197 40° Northeast  Level Estimated
11:16PM 8.5162 110.6106 40° Northeast  Level Estimated
11:17PM 8.6220 110.7017 40° Northeast  Level Estimated
11:18PM 8.7277 110.7927 40° Northeast  Level Estimated
11:19PM 8.8334 110.8838 40° Northeast  Level Estimated
11:20PM 8.9391 110.9750 40° Northeast  Level Estimated
11:21PM 9.0448 111.0662 40° Northeast  Level Estimated
11:22PM 9.1504 111.1575 40° Northeast  Level Estimated
11:23PM 9.2561 111.2488 40° Northeast  Level Estimated
11:24PM 9.3617 111.3402 40° Northeast  Level Estimated
11:25PM 9.4673 111.4316 40° Northeast  Level Estimated
11:26PM 9.5728 111.5231 41° Northeast  Level Estimated
11:27PM 9.6784 111.6146 41° Northeast  Level Estimated
11:28PM 9.7839 111.7062 41° Northeast  Level Estimated
11:29PM 9.8894 111.7979 41° Northeast  Level Estimated
11:30PM 9.9949 111.8896 41° Northeast  Level Estimated
11:31PM 10.1003 111.9814 41° Northeast  Level Estimated
11:32PM 10.2057 112.0732 41° Northeast  Level Estimated
11:33PM 10.3111 112.1651 41° Northeast  Level Estimated
11:34PM 10.4164 112.2571 41° Northeast  Level Estimated
11:35PM 10.5218 112.3491 41° Northeast  Level Estimated
11:36PM 10.6271 112.4412 41° Northeast  Level Estimated
11:37PM 10.7324 112.5333 41° Northeast  Level Estimated
11:38PM 10.8376 112.6255 41° Northeast  Level Estimated
11:39PM 10.9429 112.7178 41° Northeast  Level Estimated
11:40PM 11.0481 112.8102 41° Northeast  Level Estimated
11:41PM 11.1532 112.9026 41° Northeast  Level Estimated
11:42PM 11.2584 112.9951 41° Northeast  Level Estimated
11:43PM 11.3635 113.0876 41° Northeast  Level Estimated
11:44PM 11.4686 113.1802 41° Northeast  Level Estimated
11:45PM 11.5737 113.2729 41° Northeast  Level Estimated
11:46PM 11.6787 113.3656 41° Northeast  Level Estimated
11:47PM 11.7837 113.4585 41° Northeast  Level Estimated
11:48PM 11.8886 113.5514 41° Northeast  Level Estimated
11:49PM 11.9936 113.6443 41° Northeast  Level Estimated
11:50PM 12.0985 113.7374 41° Northeast  Level Estimated
11:51PM 12.2034 113.8305 41° Northeast  Level Estimated
11:52PM 12.3082 113.9236 41° Northeast  Level Estimated
11:53PM 12.4130 114.0169 41° Northeast  Level Estimated
11:54PM 12.5178 114.1102 41° Northeast  Level Estimated
11:55PM 12.6226 114.2036 41° Northeast  Level Estimated
11:56PM 12.7273 114.2971 41° Northeast  Level Estimated
11:57PM 12.8320 114.3907 41° Northeast  Level Estimated
11:58PM 12.9366 114.4843 41° Northeast  Level Estimated
11:59PM 13.0412 114.5780 41° Northeast  Level Estimated
12:00AM 13.1458 114.6719 41° Northeast  Level Estimated
12:01AM 13.2504 114.7657 41° Northeast  Level Estimated
12:02AM 13.3549 114.8597 41° Northeast  Level Estimated
12:03AM 13.4594 114.9537 41° Northeast  Level Estimated
12:04AM 13.5638 115.0479 41° Northeast  Level Estimated
12:05AM 13.6682 115.1421 41° Northeast  Level Estimated
12:06AM 13.7726 115.2364 41° Northeast  Level Estimated
12:07AM 13.8770 115.3307 41° Northeast  Level Estimated
12:08AM 13.9812 115.4252 41° Northeast  Level Estimated
12:09AM 14.0855 115.5197 41° Northeast  Level Estimated
12:10AM 14.1897 115.6143 41° Northeast  Level Estimated
12:11AM 14.2939 115.7091 41° Northeast  Level Estimated
12:12AM 14.3981 115.8039 41° Northeast  Level Estimated
12:13AM 14.5022 115.8988 41° Northeast  Level Estimated
12:14AM 14.6063 115.9938 41° Northeast  Level Estimated
12:15AM 14.7103 116.0888 41° Northeast  Level Estimated
12:16AM 14.8143 116.1840 41° Northeast  Level Estimated
12:17AM 14.9183 116.2792 42° Northeast  Level Estimated
12:18AM 15.0222 116.3746 42° Northeast  Level Estimated
12:19AM 15.1261 116.4700 42° Northeast  Level Estimated
12:20AM 15.2299 116.5656 42° Northeast  Level Estimated
12:21AM 15.3337 116.6612 42° Northeast  Level Estimated
12:22AM 15.4375 116.7569 42° Northeast  Level Estimated
12:23AM 15.5412 116.8527 42° Northeast  Level Estimated
12:24AM 15.6449 116.9486 42° Northeast  Level Estimated
12:25AM 15.7485 117.0447 42° Northeast  Level Estimated
12:26AM 15.8521 117.1408 42° Northeast  Level Estimated
12:27AM 15.9557 117.2370 42° Northeast  Level Estimated
12:28AM 16.0592 117.3333 42° Northeast  Level Estimated
12:29AM 16.1627 117.4297 42° Northeast  Level Estimated
12:30AM 16.2661 117.5262 42° Northeast  Level Estimated
12:31AM 16.3695 117.6228 42° Northeast  Level Estimated
12:32AM 16.4728 117.7195 42° Northeast  Level Estimated
12:33AM 16.5761 117.8164 42° Northeast  Level Estimated
12:34AM 16.6793 117.9133 42° Northeast  Level Estimated
12:35AM 16.7825 118.0103 42° Northeast  Level Estimated
12:36AM 16.8857 118.1074 42° Northeast  Level Estimated
12:37AM 16.9888 118.2047 42° Northeast  Level Estimated
12:38AM 17.0919 118.3020 42° Northeast  Level Estimated
12:39AM 17.1949 118.3995 42° Northeast  Level Estimated
12:40AM 17.2979 118.4970 42° Northeast  Level Estimated
12:41AM 17.4008 118.5947 42° Northeast  Level Estimated
12:42AM 17.5037 118.6925 42° Northeast  Level Estimated
12:43AM 17.6065 118.7904 42° Northeast  Level Estimated
12:44AM 17.7093 118.8884 42° Northeast  Level Estimated
12:45AM 17.8120 118.9865 42° Northeast  Level Estimated
12:46AM 17.9147 119.0847 42° Northeast  Level Estimated
12:47AM 18.0173 119.1830 42° Northeast  Level Estimated
12:48AM 18.1199 119.2815 42° Northeast  Level Estimated
12:49AM 18.2224 119.3801 42° Northeast  Level Estimated
12:50AM 18.3249 119.4788 42° Northeast  Level Estimated
12:51AM 18.4273 119.5776 42° Northeast  Level Estimated
12:52AM 18.5297 119.6765 42° Northeast  Level Estimated
12:53AM 18.6320 119.7755 43° Northeast  Level Estimated
12:54AM 18.7343 119.8747 43° Northeast  Level Estimated
12:55AM 18.8365 119.9740 43° Northeast  Level Estimated
12:56AM 18.9387 120.0734 43° Northeast  Level Estimated
12:57AM 19.0408 120.1729 43° Northeast  Level Estimated
12:58AM 19.1429 120.2725 43° Northeast  Level Estimated
12:59AM 19.2449 120.3723 43° Northeast  Level Estimated
01:00AM 19.3469 120.4722 43° Northeast  Level Estimated
01:01AM 19.4488 120.5722 43° Northeast  Level Estimated
01:02AM 19.5506 120.6723 43° Northeast  Level Estimated
01:03AM 19.6524 120.7726 43° Northeast  Level Estimated
01:04AM 19.7542 120.8730 43° Northeast  Level Estimated
01:04AM 19.9420 121.2610 43° Northeast 535 616 39,000  Level FlightAware
01:05AM 19.8558 120.9735 43° Northeast  Level Estimated
01:05AM 19.9940 121.3220 48° Northeast 535 616 39,000  Level FlightAware
01:05AM 20.0640 121.4060 48° Northeast 535 616 39,000  Level FlightAware
01:06AM 20.1210 121.4720 47° Northeast 535 616 39,000  Level FlightAware
01:07AM 20.2090 121.5840 50° Northeast 537 618 39,000  Level FlightAware
01:08AM 20.3050 121.7000 49° Northeast 536 617 39,000  Level FlightAware
01:08AM 20.3760 121.7860 49° Northeast 535 616 39,000  Level FlightAware
01:09AM 20.4260 121.8470 49° Northeast 535 616 39,000  Level FlightAware
01:10AM 20.4930 121.9270 48° Northeast 535 616 39,000  Level FlightAware
01:10AM 20.5610 122.0110 49° Northeast 537 618 39,000  Level FlightAware
01:11AM 20.6630 122.1370 49° Northeast 537 618 39,000  Level FlightAware
01:12AM 20.7430 122.2340 49° Northeast 535 616 39,000  Level FlightAware
01:13AM 20.8040 122.3090 49° Northeast 535 616 39,000  Level FlightAware
01:14AM 20.8780 122.4000 49° Northeast 537 618 39,000  Level FlightAware
01:14AM 20.9360 122.4710 49° Northeast 539 620 39,000  Level FlightAware
01:15AM 20.9910 122.5370 48° Northeast 539 620 39,000  Level FlightAware
01:16AM 21.0620 122.6210 48° Northeast 539 620 39,000  Level FlightAware
01:16AM 21.1130 122.6280 North 528 608 39,000  Level FlightAware
01:17AM 21.1970 122.6850 32° Northeast 528 608 39,000  Level FlightAware
01:17AM 21.2680 122.7320 32° Northeast 528 608 39,000  Level FlightAware
01:18AM 21.3560 122.7910 32° Northeast 528 608 39,000  Level FlightAware
01:19AM 21.4260 122.8380 32° Northeast 528 608 39,000  Level FlightAware
01:19AM 21.4970 122.8860 32° Northeast 528 608 39,000  Level FlightAware
01:20AM 21.5670 122.9330 32° Northeast 528 608 39,000  Level FlightAware
01:21AM 21.6380 122.9800 32° Northeast 528 608 39,000  Level FlightAware
01:22AM 21.7260 123.0400 32° Northeast 528 608 39,000  Level FlightAware
01:22AM 21.7960 123.0870 32° Northeast 528 608 39,000  Level FlightAware
01:23AM 21.8670 123.1340 32° Northeast 528 608 39,000  Level FlightAware
01:24AM 21.9370 123.1820 32° Northeast 528 608 39,000  Level FlightAware
01:24AM 22.0070 123.2290 32° Northeast 528 608 39,000  Level FlightAware
01:25AM 22.0950 123.2890 32° Northeast 528 608 39,000  Level FlightAware
01:26AM 22.1660 123.3360 32° Northeast 528 608 39,000  Level FlightAware
01:28AM 22.3431 123.5194 44° Northeast  Level Estimated
01:29AM 22.4433 123.6234 44° Northeast  Level Estimated
01:30AM 22.5434 123.7276 44° Northeast  Level Estimated
01:31AM 22.6434 123.8319 44° Northeast  Level Estimated
01:32AM 22.7434 123.9364 44° Northeast  Level Estimated
01:33AM 22.8433 124.0410 44° Northeast  Level Estimated
01:34AM 22.9431 124.1458 44° Northeast  Level Estimated
01:35AM 23.0429 124.2507 44° Northeast  Level Estimated
01:36AM 23.1426 124.3558 44° Northeast  Level Estimated
01:37AM 23.2423 124.4611 44° Northeast  Level Estimated
01:38AM 23.3418 124.5665 44° Northeast  Level Estimated
01:39AM 23.4413 124.6721 44° Northeast  Level Estimated
01:40AM 23.5407 124.7778 44° Northeast  Level Estimated
01:41AM 23.6401 124.8837 44° Northeast  Level Estimated
01:42AM 23.7393 124.9897 44° Northeast  Level Estimated
01:43AM 23.8385 125.0959 44° Northeast  Level Estimated
01:44AM 23.9377 125.2023 44° Northeast  Level Estimated
01:45AM 24.0367 125.3088 44° Northeast  Level Estimated
01:46AM 24.1357 125.4155 45° Northeast  Level Estimated
01:47AM 24.2346 125.5223 45° Northeast  Level Estimated
01:48AM 24.3334 125.6294 45° Northeast  Level Estimated
01:49AM 24.4322 125.7366 45° Northeast  Level Estimated
01:50AM 24.5308 125.8439 45° Northeast  Level Estimated
01:51AM 24.6294 125.9515 45° Northeast  Level Estimated
01:52AM 24.7280 126.0592 45° Northeast  Level Estimated
01:53AM 24.8264 126.1670 45° Northeast  Level Estimated
01:54AM 24.9248 126.2751 45° Northeast  Level Estimated
01:55AM 25.0231 126.3833 45° Northeast  Level Estimated
01:56AM 25.1213 126.4917 45° Northeast  Level Estimated
01:57AM 25.2194 126.6002 45° Northeast  Level Estimated
01:58AM 25.3175 126.7090 45° Northeast  Level Estimated
01:59AM 25.4155 126.8179 45° Northeast  Level Estimated
02:00AM 25.5134 126.9270 45° Northeast  Level Estimated
02:01AM 25.6112 127.0362 45° Northeast  Level Estimated
02:02AM 25.7089 127.1457 45° Northeast  Level Estimated
02:03AM 25.8066 127.2553 45° Northeast  Level Estimated
02:04AM 25.9041 127.3651 45° Northeast  Level Estimated
02:05AM 26.0016 127.4751 45° Northeast  Level Estimated
02:06AM 26.0990 127.5853 45° Northeast  Level Estimated
02:07AM 26.1964 127.6956 45° Northeast  Level Estimated
02:08AM 26.2936 127.8062 46° Northeast  Level Estimated
02:09AM 26.3907 127.9169 46° Northeast  Level Estimated
02:10AM 26.4878 128.0278 46° Northeast  Level Estimated
02:11AM 26.5848 128.1389 46° Northeast  Level Estimated
02:12AM 26.6817 128.2502 46° Northeast  Level Estimated
02:13AM 26.7785 128.3617 46° Northeast  Level Estimated
02:14AM 26.8752 128.4734 46° Northeast  Level Estimated
02:15AM 26.9718 128.5852 46° Northeast  Level Estimated
02:16AM 27.0684 128.6973 46° Northeast  Level Estimated
02:17AM 27.1648 128.8095 46° Northeast  Level Estimated
02:18AM 27.2612 128.9220 46° Northeast  Level Estimated
02:19AM 27.3575 129.0346 46° Northeast  Level Estimated
02:20AM 27.4536 129.1474 46° Northeast  Level Estimated
02:21AM 27.5497 129.2605 46° Northeast  Level Estimated
02:22AM 27.6457 129.3737 46° Northeast  Level Estimated
02:23AM 27.7416 129.4871 46° Northeast  Level Estimated
02:24AM 27.8375 129.6007 46° Northeast  Level Estimated
02:25AM 27.9332 129.7145 46° Northeast  Level Estimated
02:26AM 28.0288 129.8286 46° Northeast  Level Estimated
02:27AM 28.1243 129.9428 47° Northeast  Level Estimated
02:28AM 28.2198 130.0572 47° Northeast  Level Estimated
02:29AM 28.3151 130.1718 47° Northeast  Level Estimated
02:30AM 28.4104 130.2867 47° Northeast  Level Estimated
02:31AM 28.5055 130.4017 47° Northeast  Level Estimated
02:32AM 28.6006 130.5170 47° Northeast  Level Estimated
02:33AM 28.6955 130.6325 47° Northeast  Level Estimated
02:34AM 28.7904 130.7481 47° Northeast  Level Estimated
02:35AM 28.8852 130.8640 47° Northeast  Level Estimated
02:36AM 28.9798 130.9801 47° Northeast  Level Estimated
02:37AM 29.0744 131.0964 47° Northeast  Level Estimated
02:38AM 29.1688 131.2129 47° Northeast  Level Estimated
02:39AM 29.2632 131.3297 47° Northeast  Level Estimated
02:40AM 29.3575 131.4466 47° Northeast  Level Estimated
02:41AM 29.4516 131.5638 47° Northeast  Level Estimated
02:42AM 29.5457 131.6812 47° Northeast  Level Estimated
02:43AM 29.6396 131.7988 47° Northeast  Level Estimated
02:44AM 29.7335 131.9166 47° Northeast  Level Estimated
02:45AM 29.8272 132.0347 48° Northeast  Level Estimated
02:46AM 29.9208 132.1529 48° Northeast  Level Estimated
02:47AM 30.0144 132.2714 48° Northeast  Level Estimated
02:48AM 30.1078 132.3901 48° Northeast  Level Estimated
02:49AM 30.2011 132.5091 48° Northeast  Level Estimated
02:49AM 31.3660 134.5410 48° Northeast 603 694 39,000  Level FlightAware
02:50AM 30.2943 132.6282 48° Northeast  Level Estimated
02:50AM 31.4380 134.6490 52° Northeast 602 693 39,000  Level FlightAware
02:50AM 31.5260 134.7830 52° Northeast 602 693 39,000  Level FlightAware
02:51AM 31.6110 134.9110 52° Northeast 603 694 39,000  Level FlightAware
02:52AM 31.6690 134.9990 52° Northeast 603 694 39,000  Level FlightAware
02:53AM 31.7420 135.1080 52° Northeast 603 694 39,000  Level FlightAware
02:53AM 31.8000 135.1960 52° Northeast 603 694 39,000  Level FlightAware
02:54AM 31.9010 135.3570 54° Northeast 606 697 39,000  Level FlightAware
02:55AM 31.9700 135.4610 52° Northeast 605 696 39,000  Level FlightAware
02:56AM 32.0470 135.5790 52° Northeast 606 697 39,000  Level FlightAware
02:56AM 32.1160 135.6840 52° Northeast 607 699 39,000  Level FlightAware
02:57AM 32.1920 135.8000 52° Northeast 606 697 39,000  Level FlightAware
02:58AM 32.2590 135.9040 53° Northeast 607 699 39,000  Level FlightAware
02:58AM 32.3460 136.0380 52° Northeast 608 700 39,000  Level FlightAware
02:59AM 32.4110 136.1390 53° Northeast 608 700 39,000  Level FlightAware
03:00AM 32.4680 136.2260 52° Northeast 608 700 39,000  Level FlightAware
03:00AM 32.5270 136.3150 52° Northeast 608 700 39,000  Level FlightAware
03:01AM 32.5880 136.4070 52° Northeast 608 700 39,000  Level FlightAware
03:02AM 32.6530 136.5080 53° Northeast 608 700 39,000  Level FlightAware
03:03AM 32.7120 136.5980 52° Northeast 608 700 39,000  Level FlightAware
03:03AM 32.7920 136.8490 69° East 39,000  Level FlightAware
03:03AM 32.7940 136.8520 52° Northeast 39,000  Level FlightAware
03:04AM 32.8750 137.0080 58° Northeast 611 703 39,000  Level FlightAware
03:05AM 32.9400 137.1350 59° Northeast 611 703 39,000  Level FlightAware
03:06AM 32.9980 137.2470 58° Northeast 612 704 39,000  Level FlightAware
03:06AM 33.0670 137.3810 58° Northeast 608 700 39,000  Level FlightAware
03:07AM 33.1180 137.4810 59° Northeast 610 702 39,000  Level FlightAware
03:08AM 33.2090 137.6610 59° Northeast 618 711 39,000  Level FlightAware
03:09AM 33.2650 137.7710 59° Northeast 618 711 39,000  Level FlightAware
03:09AM 33.3270 137.8940 59° Northeast 613 705 39,000  Level FlightAware
03:10AM 33.3950 138.0290 59° Northeast 614 707 39,000  Level FlightAware
03:11AM 33.4410 138.1190 58° Northeast 615 708 39,000  Level FlightAware
03:11AM 33.5180 138.2730 59° Northeast 616 709 39,000  Level FlightAware
03:12AM 33.5810 138.4010 59° Northeast 616 709 39,000  Level FlightAware
03:13AM 33.6390 138.5170 59° Northeast 617 710 39,000  Level FlightAware
03:14AM 33.6990 138.6400 60° Northeast 616 709 39,000  Level FlightAware
03:14AM 33.7610 138.7640 59° Northeast 617 710 39,000 -300 Level FlightAware
03:15AM 33.8160 138.8750 59° Northeast 621 715 38,600 -900 Descending FlightAware
03:16AM 33.8890 139.0240 59° Northeast 621 715 37,800 -1,080 Descending FlightAware
03:16AM 33.9440 139.1370 60° Northeast 622 716 37,100 -1,020 Descending FlightAware
03:17AM 34.0090 139.2710 60° Northeast 613 705 36,400 -1,440 Descending FlightAware
03:18AM 34.0690 139.3950 60° Northeast 603 694 35,000 -2,580 Descending FlightAware
03:18AM 34.1250 139.5120 60° Northeast 607 699 33,000 -2,940 Descending FlightAware
03:19AM 34.1930 139.6420 58° Northeast 591 680 30,900 -3,300 Descending FlightAware
03:20AM 34.2510 139.7510 57° Northeast 580 667 28,400 -3,000 Descending FlightAware
03:21AM 34.3150 139.8720 57° Northeast 556 640 26,700 -1,980 Descending FlightAware
03:21AM 34.3670 139.9720 58° Northeast 552 635 25,600 -1,320 Descending FlightAware
03:22AM 34.4250 140.0850 58° Northeast 549 632 25,000 -1,020 Descending FlightAware
03:23AM 34.4830 140.1960 58° Northeast 541 623 24,200 -1,140 Descending FlightAware
03:23AM 34.5350 140.2970 58° Northeast 529 609 23,400 -1,380 Descending FlightAware
03:24AM 34.5960 140.4140 58° Northeast 514 592 22,300 -1,380 Descending FlightAware
03:25AM 34.6420 140.5040 58° Northeast 494 568 21,500 -1,500 Descending FlightAware
03:25AM 34.6930 140.6030 58° Northeast 464 534 20,300 -1,620 Descending FlightAware
03:27AM 34.8470 140.6910 25° Northeast 370 426 17,800 -1,740 Descending FlightAware
03:28AM 34.9250 140.7010 North 375 432 16,300 -1,920 Descending FlightAware
03:29AM 35.0010 140.7110 North 355 409 15,100 -1,620 Descending FlightAware
03:29AM 35.0520 140.7170 North 352 405 14,300 -1,380 Descending FlightAware
03:30AM 35.1720 140.7310 North 339 390 12,600 -1,560 Descending FlightAware
03:31AM 35.2350 140.7380 North 336 387 11,400 -1,740 Descending FlightAware
03:32AM 35.3080 140.7480 North 327 376 10,200 -900 Descending FlightAware
03:32AM 35.3640 140.7560 North 308 354 10,100 -60 Descending FlightAware
03:34AM 35.4600 140.7490 357° North 257 296 10,100  Level FlightAware
03:34AM 35.5080 140.7250 338° Northwest 242 278 10,100  Level FlightAware
03:35AM 35.5490 140.7060 339° North 239 275 10,100 -240 Level FlightAware
03:35AM 35.5770 140.6930 339° North 242 278 9,900 -900 Descending FlightAware
03:36AM 35.6080 140.6780 339° North 241 277 9,300 -1,200 Descending FlightAware
03:36AM 35.6340 140.6650 338° Northwest 227 261 8,800 -1,080 Descending FlightAware
03:37AM 35.6470 140.6590 339° North 225 259 8,600 -960 Descending FlightAware
03:37AM 35.6770 140.6440 338° Northwest 230 265 8,100 -1,080 Descending FlightAware
03:38AM 35.7420 140.5970 330° Northwest 226 260 6,800 -900 Descending FlightAware
03:39AM 35.8070 140.5490 329° Northwest 228 262 6,100 -300 Descending FlightAware
03:41AM 35.8680 140.5030 329° Northwest 215 247 6,100 -240 Level FlightAware
03:42AM 35.9300 140.4560 328° Northwest 214 246 5,600 -780 Descending FlightAware
03:43AM 35.9780 140.4030 318° Northwest 207 238 4,300 -960 Descending FlightAware
03:44AM 35.9810 140.3190 273° West 193 222 3,400 -720 Descending FlightAware
03:45AM 35.9770 140.2890 261° West 186 214 3,100 -300 Descending FlightAware
03:45AM 35.9650 140.2540 247° West 185 213 3,100 -300 Level FlightAware
03:45AM 35.9520 140.2580 166° South 221 254 2,900 -360 Descending FlightAware
03:46AM 35.9300 140.2580 180° South 167 192 2,900  Level FlightAware
03:46AM 35.9100 140.2700 154° Southeast 164 189 2,900  Level FlightAware
03:46AM 35.9040 140.2740 152° Southeast 158 182 2,900 -180 Level FlightAware
03:47AM 35.8870 140.2870 148° Southeast 161 185 2,800 -660 Descending FlightAware
03:48AM 35.8620 140.3050 150° Southeast 2,300 -900 Descending FlightAware
03:48AM 35.8520 140.3120 150° Southeast 131 151 2,000 -720 Descending FlightAware
03:48AM 35.8390 140.3220 148° Southeast 130 150 1,700 -660 Descending FlightAware
03:49AM 35.8240 140.3320 152° Southeast 123 142 1,400 -720 Descending FlightAware
03:50AM 35.7980 140.3510 149° Southeast 133 153 800 -480 Descending FlightAware
03:50AM 35.7860 140.3600 149° Southeast 133 153 800  Level FlightAware
03:53AM 35.7647 140.3864 135° Southeast  Level Estimated
03:54AM 35.7647 140.3864 338° Northwest  Level Estimated
03:55AM 35.7647 140.3864 338° Northwest  Level Estimated
03:56AM 35.7647 140.3864 338° Northwest  Level Estimated